Синегорье

Карта отелей и гостиниц, располагающихся рядом с аэропортом Синегорье :

Синегорье Магаданская область 62° 15' 47.2212" N, 150° 45' 10.3212" E
Код аэродрома ИКАО
UHMQ
Код аэродрома RU
УХМЯ
Координаты
N62.26312° E150.75287°
Превышение над уровнем моря
339
Основная полоса
03/21
Курс магнитный
030,6/210,6
Длина основной ВПП
1500
Ширина основной ВПП
35
Покрытие основной ВПП
Твёрдое (цементобетон)
Освещение ВПП
По запросу
Тип: 
Аэродром
Класс аэродрома: 
Принадлежность: 
ГА
Статус: 
Недействующий
Сайт: 
E-mail аэродрома: 
Страна: 
Россия
Регион: 
Магаданская область
Город: 
Дополнительная информация: 
Горный. Оператор: нет данных. Построен в 1978 г. Принимал ВС Ан-2, Ан-12, Ан-24/26, Ан-28, вертолеты всех типов. ИВПП построена из цементобетона, оборудована КПБ и ССО на базе ОМИ. В перспективе планировалось удлинение ВПП до 2300 м, для приема самолетов Ту-154. Начиная с 2000 г. аэропорт не функционирует, выведен из госреестра гражданских аэропортов РФ, вследствие чего ИВПП, здания и сооружения аэропорта подвергаются постепенному разрушению под воздействием больших перепадов температур, осадков, времени и мародеров. Имел БПРМ: 770 Ю, ДПРМ: 380 - ЮЫ.

Найти трансфер

С помощью этой формы Вы можете найти трансфер из аэропорта Синегорье в город, аэропорт или вокзал:

Карта места

Javascript is required to view this map.

Погода в аэропортах:

Авиационная погода в Брянске

Регион: 
Погода METAR: 
UUBP 050800Z 15002MPS 9999 -SHRA BKN035CB 16/16 Q1015 R16/290155 NOSIG RMK QFE743/0991
Время наблюдения
2021-08-05T08:00:00Z
Температура C
16.0
Точка росы
16.0
Направление ветра
150
Скорость ветра (узлы)
4
Метео видимость
6.21
Явления погоды
-SHRA
Условия полета
VFR
Аэропорт подробнее: 

Авиационная погода в Вадсё

Регион: 
Погода METAR: 
ENVD 050750Z 27008KT 9999 VCSH FEW022 13/09 Q1009
Время наблюдения
2021-08-05T07:50:00Z
Температура C
13.0
Точка росы
9.0
Направление ветра
270
Скорость ветра (узлы)
8
Метео видимость
6.21
Явления погоды
VCSH
Условия полета
VFR

Авиационная погода в Игнатьево

Регион: 
Погода METAR: 
UHBB 050800Z 14002MPS 110V180 9999 TS SCT033CB 25/21 Q0995 R18/290350 NOSIG RMK QFE731/0975
Время наблюдения
2021-08-05T08:00:00Z
Температура C
25.0
Точка росы
21.0
Направление ветра
140
Скорость ветра (узлы)
4
Метео видимость
6.21
Явления погоды
TS
Условия полета
VFR
Аэропорт подробнее: 

Авиационная погода в аэропорту Новый

Регион: 
Погода METAR: 
UHHH 050800Z 05002MPS 010V090 9999 -SHRA VCTS SCT033CB 22/21 Q1002 R23R/290045 TEMPO 3100 -TSRA RMK QFE745/0994
Время наблюдения
2021-08-05T08:00:00Z
Температура C
22.0
Точка росы
21.0
Направление ветра
50
Скорость ветра (узлы)
4
Метео видимость
6.21
Явления погоды
-SHRA VCTS
Условия полета
VFR
Аэропорт подробнее: